Beloit, KS

8:31 AM CST on December 22, 2014 (GMT -0600)
Kansas | Change Station
CLOSE
Current Station
Personal Weather Station
Location: Beloit, KS
Elevation: 1404 ft
Nearby Weather Stations

Elev 1404 ft 39.46 °N, 98.10 °W | Updated 2 seconds ago

Mostly Cloudy
Mostly Cloudy
40.8 °F
Feels Like 38 °F
N
4.0
Wind Variable Wind from NW
Gusts 9.0 mph

Today
High -- | Low -- °F
--% Chance of Precip.
Yesterday
High -- | Low -- °F
Precip. -- in
7:49 AM 5:12 PM
New Moon, 0% visible
Pressure 29.52 in
Visibility 4.0 miles
Clouds Scattered Clouds 2600 ft
Overcast 9000 ft
Windchill 38 °F
Dew Point 39 °F
Humidity 92%
Rainfall 0.00 in
Snow Depth Not available.
UV 0 out of 12
Pollen .10 out of 12
Air Quality Not available.
Flu Activity Not available.
SPECI KCNK 221427Z AUTO 29010KT 4SM BR SCT026 OVC090 06/06 A2952 RMK AO2 T00610056

More Conditions Fewer Conditions

Pressure 29.52 in
Visibility 4.0 miles
Clouds Scattered Clouds 2600 ft
Overcast 9000 ft
Windchill 38 °F
Dew Point 39 °F
Humidity 92%
Rainfall 0.00 in
Snow Depth Not available.
UV 0 out of 12
Pollen .10 out of 12
Air Quality Not available.
Flu Activity Not available.
SPECI KCNK 221427Z AUTO 29010KT 4SM BR SCT026 OVC090 06/06 A2952 RMK AO2 T00610056

More Conditions Fewer Conditions

10-Day Weather Forecast

Almanac

Astronomy

Dec. 22, 2014 Rise Set
Actual Time
Civil Twilight
Nautical Twilight
Astronomical Twilight
Moon
Length of Visible Light
Length of Day
Tomorrow will be .
, % of the Moon is Illuminated

Today's Extremes

State Highs State Lows

Community

WunderPhotos

Upload Photos

1,779,608 photos uploaded!

WunderBlogs® & News

Nearby

Air Quality

  Air Quality AQ Index Pollutant
Not available.

Snow Depth

Station Depth Elevation

Earthquake Activity

City Distance Mag. Time & Date
Minimum magnitude displayed is 2.5.

Coastal Water Temperatures

Place Temperature

Nearby Weather Stations